Time,TemperatureF,DewpointF,PressureIn,WindDirection,WindDirectionDegrees,WindSpeedMPH,WindSpeedGustMPH,Humidity,HourlyPrecipIn,Conditions,Clouds,dailyrainin,SoftwareType,DateUTC
2013-08-30 00:10:00,72.0,64.0,29.93,West,276,0.0,0.0,77,0.00,,,0.00,weatherlink.com 1.10,2013-08-30 05:10:00,
2013-08-30 00:25:00,71.7,65.0,29.93,West,276,0.0,0.0,79,0.00,,,0.00,weatherlink.com 1.10,2013-08-30 05:25:00,
2013-08-30 00:40:00,70.9,64.0,29.93,West,277,0.0,0.0,80,0.00,,,0.00,weatherlink.com 1.10,2013-08-30 05:40:00,
2013-08-30 00:55:00,70.8,65.0,29.93,West,276,0.0,0.0,81,0.00,,,0.00,weatherlink.com 1.10,2013-08-30 05:55:00,
2013-08-30 01:10:00,70.3,64.0,29.93,West,276,0.0,0.0,81,0.00,,,0.00,weatherlink.com 1.10,2013-08-30 06:10:00,
2013-08-30 01:26:00,70.0,65.0,29.93,West,277,0.0,0.0,83,0.00,,,0.00,weatherlink.com 1.10,2013-08-30 06:26:00,
2013-08-30 01:41:00,69.7,64.0,29.93,WNW,302,0.0,0.0,83,0.00,,,0.00,weatherlink.com 1.10,2013-08-30 06:41:00,
2013-08-30 01:56:00,69.4,64.0,29.93,WNW,302,0.0,0.0,83,0.00,,,0.00,weatherlink.com 1.10,2013-08-30 06:56:00,
2013-08-30 02:11:00,69.2,64.0,29.93,WNW,302,0.0,0.0,84,0.00,,,0.00,weatherlink.com 1.10,2013-08-30 07:11:00,
2013-08-30 02:26:00,69.2,64.0,29.93,NNE,23,0.0,0.0,84,0.00,,,0.00,weatherlink.com 1.10,2013-08-30 07:26:00,
2013-08-30 02:41:00,69.2,64.0,29.93,NNE,23,0.0,0.0,84,0.00,,,0.00,weatherlink.com 1.10,2013-08-30 07:41:00,
2013-08-30 02:56:00,69.1,64.0,29.93,NNE,16,0.0,0.0,84,0.00,,,0.00,weatherlink.com 1.10,2013-08-30 07:56:00,
2013-08-30 03:11:00,69.0,64.0,29.93,NNW,332,0.0,0.0,84,0.00,,,0.00,weatherlink.com 1.10,2013-08-30 08:11:00,
2013-08-30 03:26:00,68.7,64.0,29.93,NNW,333,0.0,0.0,85,0.00,,,0.00,weatherlink.com 1.10,2013-08-30 08:26:00,
2013-08-30 03:41:00,68.5,64.0,29.93,NNW,333,0.0,0.0,86,0.00,,,0.00,weatherlink.com 1.10,2013-08-30 08:41:00,
2013-08-30 03:56:00,68.4,64.0,29.93,NNW,341,0.0,0.0,86,0.00,,,0.00,weatherlink.com 1.10,2013-08-30 08:56:00,
2013-08-30 04:11:00,68.3,64.0,29.93,NNE,12,0.0,0.0,86,0.00,,,0.00,weatherlink.com 1.10,2013-08-30 09:11:00,
2013-08-30 04:26:00,68.0,64.0,29.93,NNE,12,0.0,0.0,87,0.00,,,0.00,weatherlink.com 1.10,2013-08-30 09:26:00,
2013-08-30 04:41:00,67.8,64.0,29.93,NNE,12,0.0,0.0,87,0.00,,,0.00,weatherlink.com 1.10,2013-08-30 09:41:00,
2013-08-30 04:56:00,67.7,64.0,29.92,NNE,12,0.0,0.0,88,0.00,,,0.00,weatherlink.com 1.10,2013-08-30 09:56:00,
2013-08-30 05:11:00,67.4,64.0,29.92,NNE,12,0.0,0.0,88,0.00,,,0.00,weatherlink.com 1.10,2013-08-30 10:11:00,
2013-08-30 05:26:00,67.1,64.0,29.93,NNE,12,0.0,0.0,89,0.00,,,0.00,weatherlink.com 1.10,2013-08-30 10:26:00,
2013-08-30 05:41:00,66.9,64.0,29.93,NNE,12,0.0,0.0,89,0.00,,,0.00,weatherlink.com 1.10,2013-08-30 10:41:00,
2013-08-30 05:56:00,66.6,64.0,29.93,NNE,12,0.0,0.0,90,0.00,,,0.00,weatherlink.com 1.10,2013-08-30 10:56:00,
2013-08-30 06:11:00,66.6,64.0,29.93,NNE,12,0.0,1.0,90,0.00,,,0.00,weatherlink.com 1.10,2013-08-30 11:11:00,
2013-08-30 06:26:00,66.7,64.0,29.93,NNE,12,0.0,1.0,90,0.00,,,0.00,weatherlink.com 1.10,2013-08-30 11:26:00,
2013-08-30 06:41:00,66.6,64.0,29.94,North,11,0.0,0.0,90,0.00,,,0.00,weatherlink.com 1.10,2013-08-30 11:41:00,
2013-08-30 06:56:00,66.6,64.0,29.94,NNE,12,0.0,0.0,90,0.00,,,0.00,weatherlink.com 1.10,2013-08-30 11:56:00,
2013-08-30 07:11:00,66.4,64.0,29.95,NNE,12,0.0,0.0,90,0.00,,,0.00,weatherlink.com 1.10,2013-08-30 12:11:00,
2013-08-30 07:26:00,66.3,64.0,29.95,NW,326,0.0,0.0,91,0.00,,,0.00,weatherlink.com 1.10,2013-08-30 12:26:00,
2013-08-30 07:41:00,66.7,64.0,29.95,NW,326,0.0,0.0,91,0.00,,,0.00,weatherlink.com 1.10,2013-08-30 12:41:00,
2013-08-30 07:56:00,68.3,65.0,29.95,NW,326,0.0,0.0,90,0.00,,,0.00,weatherlink.com 1.10,2013-08-30 12:56:00,
2013-08-30 08:11:00,70.9,67.0,29.95,NW,326,0.0,0.0,88,0.00,,,0.00,weatherlink.com 1.10,2013-08-30 13:11:00,
2013-08-30 08:26:00,74.8,69.0,29.96,WSW,253,0.0,0.0,81,0.00,,,0.00,weatherlink.com 1.10,2013-08-30 13:26:00,
2013-08-30 08:41:00,78.2,70.0,29.96,WSW,252,0.0,0.0,77,0.00,,,0.00,weatherlink.com 1.10,2013-08-30 13:41:00,
2013-08-30 08:56:00,81.1,70.0,29.96,South,186,0.0,1.0,68,0.00,,,0.00,weatherlink.com 1.10,2013-08-30 13:56:00,
2013-08-30 09:11:00,82.7,70.0,29.96,SW,224,0.0,1.0,65,0.00,,,0.00,weatherlink.com 1.10,2013-08-30 14:11:00,
2013-08-30 09:26:00,84.0,69.0,29.96,SW,218,0.0,0.0,60,0.00,,,0.00,weatherlink.com 1.10,2013-08-30 14:26:00,
2013-08-30 09:41:00,85.2,68.0,29.97,WNW,295,0.0,0.0,56,0.00,,,0.00,weatherlink.com 1.10,2013-08-30 14:41:00,
2013-08-30 09:56:00,86.4,67.0,29.97,West,279,0.0,0.0,52,0.00,,,0.00,weatherlink.com 1.10,2013-08-30 14:56:00,
2013-08-30 10:11:00,87.7,66.0,29.97,SW,236,0.0,0.0,49,0.00,,,0.00,weatherlink.com 1.10,2013-08-30 15:11:00,
2013-08-30 10:26:00,90.2,68.0,29.96,SW,225,0.0,0.0,48,0.00,,,0.00,weatherlink.com 1.10,2013-08-30 15:26:00,
2013-08-30 10:42:00,90.9,66.0,29.96,WNW,290,0.0,0.0,44,0.00,,,0.00,weatherlink.com 1.10,2013-08-30 15:42:00,
2013-08-30 10:57:00,91.6,67.0,29.96,SSE,148,0.0,0.0,44,0.00,,,0.00,weatherlink.com 1.10,2013-08-30 15:57:00,
2013-08-30 11:12:00,94.8,68.0,29.96,SW,225,0.0,0.0,41,0.00,,,0.00,weatherlink.com 1.10,2013-08-30 16:12:00,
2013-08-30 11:27:00,93.4,67.0,29.95,SW,229,0.0,0.0,42,0.00,,,0.00,weatherlink.com 1.10,2013-08-30 16:27:00,
2013-08-30 11:42:00,92.4,65.0,29.95,NW,320,0.0,0.0,41,0.00,,,0.00,weatherlink.com 1.10,2013-08-30 16:42:00,
2013-08-30 11:57:00,94.1,64.0,29.94,SW,226,0.0,0.0,37,0.00,,,0.00,weatherlink.com 1.10,2013-08-30 16:57:00,
2013-08-30 12:12:00,95.1,64.0,29.94,SSW,205,0.0,0.0,36,0.00,,,0.00,weatherlink.com 1.10,2013-08-30 17:12:00,
2013-08-30 12:27:00,94.9,65.0,29.94,ENE,75,0.0,0.0,37,0.00,,,0.00,weatherlink.com 1.10,2013-08-30 17:27:00,
2013-08-30 12:42:00,97.3,65.0,29.93,SW,224,0.0,0.0,34,0.00,,,0.00,weatherlink.com 1.10,2013-08-30 17:42:00,
2013-08-30 12:57:00,97.0,65.0,29.92,SW,230,0.0,0.0,35,0.00,,,0.00,weatherlink.com 1.10,2013-08-30 17:57:00,
2013-08-30 13:12:00,97.3,65.0,29.92,SW,230,0.0,0.0,35,0.00,,,0.00,weatherlink.com 1.10,2013-08-30 18:12:00,
2013-08-30 13:27:00,96.4,64.0,29.91,South,183,0.0,0.0,34,0.00,,,0.00,weatherlink.com 1.10,2013-08-30 18:27:00,
2013-08-30 13:42:00,95.2,63.0,29.90,NW,314,0.0,0.0,34,0.00,,,0.00,weatherlink.com 1.10,2013-08-30 18:42:00,
2013-08-30 13:57:00,96.1,64.0,29.89,SW,224,0.0,0.0,34,0.00,,,0.00,weatherlink.com 1.10,2013-08-30 18:57:00,
2013-08-30 14:12:00,97.3,63.0,29.89,South,170,0.0,0.0,32,0.00,,,0.00,weatherlink.com 1.10,2013-08-30 19:12:00,
2013-08-30 14:27:00,96.9,63.0,29.88,NE,37,0.0,0.0,33,0.00,,,0.00,weatherlink.com 1.10,2013-08-30 19:27:00,
2013-08-30 14:42:00,97.7,65.0,29.88,East,83,0.0,0.0,34,0.00,,,0.00,weatherlink.com 1.10,2013-08-30 19:42:00,
2013-08-30 14:57:00,94.9,63.0,29.87,SW,231,0.0,0.0,35,0.00,,,0.00,weatherlink.com 1.10,2013-08-30 19:57:00,
2013-08-30 15:12:00,93.9,63.0,29.86,SE,141,0.0,0.0,36,0.00,,,0.00,weatherlink.com 1.10,2013-08-30 20:12:00,
2013-08-30 15:27:00,94.1,63.0,29.86,SSW,204,0.0,0.0,35,0.00,,,0.00,weatherlink.com 1.10,2013-08-30 20:27:00,
2013-08-30 15:42:00,96.3,62.0,29.85,South,191,0.0,0.0,32,0.00,,,0.00,weatherlink.com 1.10,2013-08-30 20:42:00,
2013-08-30 15:57:00,97.5,63.0,29.84,SSW,194,0.0,0.0,32,0.00,,,0.00,weatherlink.com 1.10,2013-08-30 20:57:00,
2013-08-30 16:12:00,99.7,63.0,29.83,NE,45,0.0,0.0,30,0.00,,,0.00,weatherlink.com 1.10,2013-08-30 21:12:00,
2013-08-30 16:27:00,100.4,62.0,29.83,SSW,204,0.0,0.0,28,0.00,,,0.00,weatherlink.com 1.10,2013-08-30 21:27:00,
2013-08-30 16:42:00,96.9,62.0,29.83,SE,128,0.0,0.0,31,0.00,,,0.00,weatherlink.com 1.10,2013-08-30 21:42:00,
2013-08-30 16:57:00,95.3,62.0,29.82,NNE,26,0.0,0.0,33,0.00,,,0.00,weatherlink.com 1.10,2013-08-30 21:57:00,
2013-08-30 17:12:00,96.8,62.0,29.82,SW,224,0.0,0.0,31,0.00,,,0.00,weatherlink.com 1.10,2013-08-30 22:12:00,
2013-08-30 17:27:00,98.4,62.0,29.81,WSW,238,0.0,0.0,30,0.00,,,0.00,weatherlink.com 1.10,2013-08-30 22:27:00,
2013-08-30 17:42:00,98.4,62.0,29.81,ESE,114,0.0,0.0,30,0.00,,,0.00,weatherlink.com 1.10,2013-08-30 22:42:00,
2013-08-30 17:57:00,96.1,62.0,29.81,North,6,0.0,0.0,32,0.00,,,0.00,weatherlink.com 1.10,2013-08-30 22:57:00,
2013-08-30 18:13:00,94.8,62.0,29.81,SE,140,0.0,0.0,33,0.00,,,0.00,weatherlink.com 1.10,2013-08-30 23:13:00,
2013-08-30 18:27:00,94.1,63.0,29.81,SW,214,0.0,0.0,35,0.00,,,0.00,weatherlink.com 1.10,2013-08-30 23:27:00,
2013-08-30 18:42:00,93.9,62.0,29.81,SW,218,0.0,0.0,35,0.00,,,0.00,weatherlink.com 1.10,2013-08-30 23:42:00,
2013-08-30 18:57:00,94.3,63.0,29.81,SSW,210,0.0,0.0,35,0.00,,,0.00,weatherlink.com 1.10,2013-08-30 23:57:00,
2013-08-30 19:12:00,93.5,63.0,29.81,South,177,0.0,0.0,36,0.00,,,0.00,weatherlink.com 1.10,2013-08-31 00:12:00,
2013-08-30 19:27:00,92.5,63.0,29.81,SW,219,0.0,0.0,38,0.00,,,0.00,weatherlink.com 1.10,2013-08-31 00:27:00,
2013-08-30 19:43:00,91.5,63.0,29.81,SSW,211,0.0,0.0,39,0.00,,,0.00,weatherlink.com 1.10,2013-08-31 00:43:00,
2013-08-30 19:58:00,90.2,64.0,29.82,South,191,0.0,0.0,42,0.00,,,0.00,weatherlink.com 1.10,2013-08-31 00:58:00,
2013-08-30 20:13:00,88.5,65.0,29.82,SSW,203,0.0,0.0,45,0.00,,,0.00,weatherlink.com 1.10,2013-08-31 01:13:00,
2013-08-30 20:28:00,86.0,64.0,29.82,SSW,204,0.0,0.0,48,0.00,,,0.00,weatherlink.com 1.10,2013-08-31 01:28:00,
2013-08-30 20:43:00,83.4,64.0,29.83,WNW,292,0.0,0.0,53,0.00,,,0.00,weatherlink.com 1.10,2013-08-31 01:43:00,
2013-08-30 20:58:00,82.1,64.0,29.83,WNW,293,0.0,0.0,55,0.00,,,0.00,weatherlink.com 1.10,2013-08-31 01:58:00,
2013-08-30 21:13:00,81.0,65.0,29.83,WNW,293,0.0,0.0,59,0.00,,,0.00,weatherlink.com 1.10,2013-08-31 02:13:00,
2013-08-30 21:28:00,79.8,65.0,29.83,WNW,293,0.0,0.0,60,0.00,,,0.00,weatherlink.com 1.10,2013-08-31 02:28:00,
2013-08-30 21:43:00,79.3,65.0,29.83,WNW,293,0.0,0.0,62,0.00,,,0.00,weatherlink.com 1.10,2013-08-31 02:43:00,
2013-08-30 21:58:00,78.0,65.0,29.84,WNW,293,0.0,0.0,64,0.00,,,0.00,weatherlink.com 1.10,2013-08-31 02:58:00,
2013-08-30 22:13:00,77.4,65.0,29.84,WNW,293,0.0,0.0,66,0.00,,,0.00,weatherlink.com 1.10,2013-08-31 03:13:00,
2013-08-30 22:28:00,76.7,66.0,29.84,WNW,293,0.0,0.0,69,0.00,,,0.00,weatherlink.com 1.10,2013-08-31 03:28:00,
2013-08-30 22:43:00,75.6,65.0,29.84,WNW,293,0.0,0.0,70,0.00,,,0.00,weatherlink.com 1.10,2013-08-31 03:43:00,
2013-08-30 22:58:00,75.2,65.0,29.84,WNW,293,0.0,0.0,71,0.00,,,0.00,weatherlink.com 1.10,2013-08-31 03:58:00,
2013-08-30 23:13:00,74.6,65.0,29.84,WNW,293,0.0,0.0,72,0.00,,,0.00,weatherlink.com 1.10,2013-08-31 04:13:00,
2013-08-30 23:28:00,73.9,65.0,29.84,WNW,293,0.0,0.0,74,0.00,,,0.00,weatherlink.com 1.10,2013-08-31 04:28:00,
2013-08-30 23:43:00,73.7,65.0,29.84,WNW,293,0.0,0.0,74,0.00,,,0.00,weatherlink.com 1.10,2013-08-31 04:43:00,
2013-08-30 23:58:00,73.3,65.0,29.84,WNW,293,0.0,0.0,75,0.00,,,0.00,weatherlink.com 1.10,2013-08-31 04:58:00,